Time;durP1;ratioP1;P1;durP2;ratioP2;P2;SDS_P1;SDS_P2;PMS_P1;PMS_P2;Temp;Humidity;BMP_temperature;BMP_pressure;BME280_temperature;BME280_humidity;BME280_pressure;Samples;Min_cycle;Max_cycle;Signal;HPM_P1;HPM_P2
2022/05/31 00:00:20;;;;;;;3.22;2.00;;;;;;;;;;4991697;28;20030;-71
2022/05/31 00:02:46;;;;;;;1.98;1.50;;;;;;;;;;4977517;28;20444;-73
2022/05/31 00:05:12;;;;;;;4.07;1.77;;;;;;;;;;4990636;28;20034;-70
2022/05/31 00:07:37;;;;;;;2.22;1.60;;;;;;;;;;4974897;28;20128;-68
2022/05/31 00:10:04;;;;;;;3.60;1.83;;;;;;;;;;4990848;28;20490;-68
2022/05/31 00:12:29;;;;;;;5.55;1.83;;;;;;;;;;4988769;28;20180;-70
2022/05/31 00:14:54;;;;;;;1.10;1.10;;;;;;;;;;4979599;28;20113;-76
2022/05/31 00:17:20;;;;;;;1.95;1.83;;;;;;;;;;4987360;28;20391;-71
2022/05/31 00:19:46;;;;;;;1.60;1.17;;;;;;;;;;5007959;28;20346;-74
2022/05/31 00:22:12;;;;;;;1.40;1.20;;;;;;;;;;4991124;28;20335;-70
2022/05/31 00:24:39;;;;;;;1.75;1.40;;;;;;;;;;4983188;28;20546;-70
2022/05/31 00:27:05;;;;;;;3.13;1.20;;;;;;;;;;4991746;28;20030;-70
2022/05/31 00:29:30;;;;;;;1.83;1.40;;;;;;;;;;4994742;28;20019;-70
2022/05/31 00:31:58;;;;;;;1.40;1.30;;;;;;;;;;4979556;28;20365;-74
2022/05/31 00:34:24;;;;;;;2.55;1.10;;;;;;;;;;4996810;28;20408;-70
2022/05/31 00:36:50;;;;;;;5.38;2.15;;;;;;;;;;4986543;28;20064;-74
2022/05/31 00:39:15;;;;;;;1.35;1.20;;;;;;;;;;4979399;28;20049;-75
2022/05/31 00:41:41;;;;;;;1.80;1.08;;;;;;;;;;4997396;28;20081;-72
2022/05/31 00:44:08;;;;;;;4.07;2.13;;;;;;;;;;4991176;28;20029;-72
2022/05/31 00:46:40;;;;;;;1.35;1.25;;;;;;;;;;4976707;28;20122;-69
2022/05/31 00:49:07;;;;;;;1.30;1.20;;;;;;;;;;4986468;28;20069;-73
2022/05/31 00:51:40;;;;;;;1.60;1.30;;;;;;;;;;4987067;28;20034;-72
2022/05/31 00:54:07;;;;;;;1.77;1.60;;;;;;;;;;4977433;28;20030;-70
2022/05/31 00:56:33;;;;;;;3.00;1.50;;;;;;;;;;4988391;28;20105;-71
2022/05/31 00:59:05;;;;;;;1.45;1.33;;;;;;;;;;4989957;28;20390;-73
2022/05/31 01:01:33;;;;;;;3.55;1.35;;;;;;;;;;4988355;28;20058;-68
2022/05/31 01:03:59;;;;;;;1.92;1.23;;;;;;;;;;4977208;28;20085;-69
2022/05/31 01:06:24;;;;;;;1.33;1.23;;;;;;;;;;4981259;28;20053;-75
2022/05/31 01:08:53;;;;;;;1.60;1.50;;;;;;;;;;4985002;28;20029;-71
2022/05/31 01:11:20;;;;;;;2.43;1.43;;;;;;;;;;4978512;28;20089;-69
2022/05/31 01:13:46;;;;;;;1.30;1.20;;;;;;;;;;4983114;28;20034;-73
2022/05/31 01:16:13;;;;;;;1.38;1.27;;;;;;;;;;4986883;28;20038;-69
2022/05/31 01:18:38;;;;;;;2.58;1.38;;;;;;;;;;4988392;28;20026;-70
2022/05/31 01:21:05;;;;;;;2.47;1.27;;;;;;;;;;4988943;28;20036;-70
2022/05/31 01:23:37;;;;;;;3.13;1.60;;;;;;;;;;4986189;28;20058;-69
2022/05/31 01:26:02;;;;;;;1.48;1.38;;;;;;;;;;4982815;28;20450;-69
2022/05/31 01:28:46;;;;;;;2.15;1.40;;;;;;;;;;4978341;28;20027;-68
2022/05/31 01:31:22;;;;;;;8.10;1.70;;;;;;;;;;4990039;28;20076;-69
2022/05/31 01:34:02;;;;;;;4.07;1.55;;;;;;;;;;4982145;28;20026;-70
2022/05/31 01:36:47;;;;;;;2.60;1.85;;;;;;;;;;4981493;28;20031;-75
2022/05/31 01:39:19;;;;;;;3.30;2.25;;;;;;;;;;4988144;28;20034;-70
2022/05/31 01:41:48;;;;;;;2.55;2.28;;;;;;;;;;4981011;28;20035;-76
2022/05/31 01:44:15;;;;;;;5.93;2.03;;;;;;;;;;4983045;28;20034;-75
2022/05/31 01:46:41;;;;;;;2.53;1.92;;;;;;;;;;4968101;28;20053;-69
2022/05/31 01:49:08;;;;;;;1.83;1.60;;;;;;;;;;4980519;28;20442;-70
2022/05/31 01:51:40;;;;;;;2.55;1.85;;;;;;;;;;4987073;28;20046;-72
2022/05/31 01:54:06;;;;;;;2.55;2.10;;;;;;;;;;4991581;28;20132;-68
2022/05/31 01:56:31;;;;;;;3.35;2.05;;;;;;;;;;4958726;28;20065;-70
2022/05/31 01:58:58;;;;;;;3.28;2.30;;;;;;;;;;4972200;28;20346;-69
2022/05/31 02:01:24;;;;;;;3.47;2.22;;;;;;;;;;4975277;28;20023;-68
2022/05/31 02:03:49;;;;;;;2.65;2.30;;;;;;;;;;4977629;28;20098;-74
2022/05/31 02:06:29;;;;;;;3.63;3.10;;;;;;;;;;4974026;28;20498;-72
2022/05/31 02:08:54;;;;;;;3.55;2.20;;;;;;;;;;4971642;28;20118;-68
2022/05/31 02:11:20;;;;;;;2.60;1.90;;;;;;;;;;4976499;28;20126;-69
2022/05/31 02:13:45;;;;;;;1.63;1.52;;;;;;;;;;4972039;28;20081;-68
2022/05/31 02:16:11;;;;;;;3.50;1.95;;;;;;;;;;4968880;28;20053;-74
2022/05/31 02:21:20;;;;;;;2.15;2.03;;;;;;;;;;4976834;28;20060;-69
2022/05/31 02:23:46;;;;;;;2.08;1.88;;;;;;;;;;4976571;28;20830;-68
2022/05/31 02:26:11;;;;;;;2.40;1.95;;;;;;;;;;4970702;28;20042;-68
2022/05/31 02:28:36;;;;;;;3.00;2.17;;;;;;;;;;4947367;28;20026;-70
2022/05/31 02:31:02;;;;;;;4.45;2.97;;;;;;;;;;4977493;28;20042;-68
2022/05/31 02:33:27;;;;;;;2.60;2.40;;;;;;;;;;4968455;28;20110;-69
2022/05/31 02:35:52;;;;;;;3.20;2.47;;;;;;;;;;4971004;28;20045;-74
2022/05/31 02:38:17;;;;;;;2.72;2.53;;;;;;;;;;4974557;28;20350;-72
2022/05/31 02:40:43;;;;;;;7.72;2.33;;;;;;;;;;4977203;28;20434;-74
2022/05/31 02:43:09;;;;;;;4.78;2.65;;;;;;;;;;4975903;28;20049;-68
2022/05/31 02:45:34;;;;;;;2.50;2.05;;;;;;;;;;4974965;28;20027;-68
2022/05/31 02:47:59;;;;;;;12.55;2.53;;;;;;;;;;4975221;28;20029;-70
2022/05/31 02:50:25;;;;;;;3.78;2.60;;;;;;;;;;4970793;28;20412;-67
2022/05/31 02:52:50;;;;;;;2.42;1.80;;;;;;;;;;4979909;28;20065;-69
2022/05/31 02:55:16;;;;;;;3.40;2.47;;;;;;;;;;4980120;28;20041;-70
2022/05/31 02:57:42;;;;;;;3.15;2.75;;;;;;;;;;4998957;28;20025;-70
2022/05/31 03:00:08;;;;;;;4.28;2.70;;;;;;;;;;5000012;28;20033;-72
2022/05/31 03:02:35;;;;;;;4.03;2.15;;;;;;;;;;5000054;28;20037;-70
2022/05/31 03:05:00;;;;;;;2.70;2.28;;;;;;;;;;4990833;28;20037;-67
2022/05/31 03:07:26;;;;;;;2.60;2.40;;;;;;;;;;4997338;28;20049;-71
2022/05/31 03:09:51;;;;;;;2.55;2.35;;;;;;;;;;4999821;28;20026;-70
2022/05/31 03:12:17;;;;;;;3.20;2.50;;;;;;;;;;4988218;28;20438;-69
2022/05/31 03:14:51;;;;;;;2.92;2.63;;;;;;;;;;5000407;28;20115;-70
2022/05/31 03:17:18;;;;;;;2.25;2.08;;;;;;;;;;4999024;28;20033;-67
2022/05/31 03:19:50;;;;;;;4.45;2.63;;;;;;;;;;4976485;28;20033;-70
2022/05/31 03:22:19;;;;;;;2.72;2.20;;;;;;;;;;4993390;28;20425;-73
2022/05/31 03:24:50;;;;;;;3.47;2.42;;;;;;;;;;4999554;28;20426;-69
2022/05/31 03:27:15;;;;;;;2.85;2.63;;;;;;;;;;5000164;28;20053;-71
2022/05/31 03:29:42;;;;;;;3.83;2.58;;;;;;;;;;4996528;28;20026;-73
2022/05/31 03:32:08;;;;;;;3.85;2.70;;;;;;;;;;4998985;28;20029;-69
2022/05/31 03:34:34;;;;;;;3.10;2.80;;;;;;;;;;4993032;28;20034;-70
2022/05/31 03:36:59;;;;;;;4.13;2.72;;;;;;;;;;4988290;28;20025;-70
2022/05/31 03:39:24;;;;;;;2.90;2.58;;;;;;;;;;4997938;28;20054;-71
2022/05/31 03:41:50;;;;;;;2.63;2.42;;;;;;;;;;4988356;28;20026;-68
2022/05/31 03:44:15;;;;;;;4.65;2.80;;;;;;;;;;4998453;28;20033;-68
2022/05/31 03:46:40;;;;;;;3.55;2.58;;;;;;;;;;5000056;28;20022;-71
2022/05/31 03:49:06;;;;;;;2.47;2.28;;;;;;;;;;4993282;28;20026;-71
2022/05/31 03:51:31;;;;;;;3.13;2.72;;;;;;;;;;4966494;28;20461;-76
2022/05/31 03:53:57;;;;;;;2.90;2.60;;;;;;;;;;4966198;28;20026;-71
2022/05/31 03:56:22;;;;;;;3.17;2.88;;;;;;;;;;4977339;28;20053;-71
2022/05/31 03:58:47;;;;;;;2.47;2.22;;;;;;;;;;4970987;28;20053;-72
2022/05/31 04:01:13;;;;;;;3.30;2.95;;;;;;;;;;4970994;28;20084;-68
2022/05/31 04:03:38;;;;;;;3.58;3.00;;;;;;;;;;4973863;28;20038;-69
2022/05/31 04:06:04;;;;;;;2.95;2.67;;;;;;;;;;4980888;28;20034;-69
2022/05/31 04:08:29;;;;;;;5.20;2.92;;;;;;;;;;4984827;28;20446;-75
2022/05/31 04:10:55;;;;;;;3.72;3.30;;;;;;;;;;4974145;28;20026;-72
2022/05/31 04:13:22;;;;;;;8.15;3.45;;;;;;;;;;4977568;28;20029;-72
2022/05/31 04:15:47;;;;;;;4.82;3.17;;;;;;;;;;4977947;28;20030;-69
2022/05/31 04:18:13;;;;;;;3.72;3.35;;;;;;;;;;4978501;28;20037;-69
2022/05/31 04:20:38;;;;;;;4.65;3.60;;;;;;;;;;4972987;28;20022;-70
2022/05/31 04:25:48;;;;;;;4.20;3.10;;;;;;;;;;4983386;28;20061;-76
2022/05/31 04:28:14;;;;;;;4.07;3.38;;;;;;;;;;4986018;28;20443;-72
2022/05/31 04:30:42;;;;;;;3.40;3.10;;;;;;;;;;4985526;28;20057;-68
2022/05/31 04:33:08;;;;;;;5.03;3.22;;;;;;;;;;4985319;28;20022;-72
2022/05/31 04:35:33;;;;;;;3.55;3.00;;;;;;;;;;4984613;28;20049;-72
2022/05/31 04:37:58;;;;;;;5.65;3.08;;;;;;;;;;4990728;28;20101;-76
2022/05/31 04:40:24;;;;;;;3.75;3.05;;;;;;;;;;4984791;28;20034;-73
2022/05/31 04:42:50;;;;;;;2.55;2.35;;;;;;;;;;4975148;28;20041;-71
2022/05/31 04:45:15;;;;;;;5.35;2.70;;;;;;;;;;4975656;28;20033;-71
2022/05/31 04:47:43;;;;;;;3.47;2.67;;;;;;;;;;4974421;28;20412;-73
2022/05/31 04:50:08;;;;;;;4.10;2.83;;;;;;;;;;4976716;28;20096;-70
2022/05/31 04:52:34;;;;;;;2.97;2.45;;;;;;;;;;4971519;28;20030;-72
2022/05/31 04:54:59;;;;;;;2.70;2.50;;;;;;;;;;4973445;28;20446;-74
2022/05/31 04:57:24;;;;;;;4.22;2.47;;;;;;;;;;4967746;28;20398;-71
2022/05/31 04:59:49;;;;;;;3.90;2.78;;;;;;;;;;4969664;28;20438;-70
2022/05/31 05:02:15;;;;;;;3.00;2.80;;;;;;;;;;4970729;28;20753;-72
2022/05/31 05:04:40;;;;;;;2.83;2.50;;;;;;;;;;4959684;28;20030;-73
2022/05/31 05:07:05;;;;;;;3.17;2.70;;;;;;;;;;4969222;28;20030;-68
2022/05/31 05:09:31;;;;;;;3.00;2.28;;;;;;;;;;4968441;28;20401;-69
2022/05/31 05:11:56;;;;;;;4.70;2.47;;;;;;;;;;4971151;28;20034;-71
2022/05/31 05:14:22;;;;;;;2.58;2.38;;;;;;;;;;4984894;28;20092;-75
2022/05/31 05:16:47;;;;;;;3.80;2.60;;;;;;;;;;4989371;28;20030;-71
2022/05/31 05:19:13;;;;;;;2.25;2.05;;;;;;;;;;4990139;28;20124;-76
2022/05/31 05:21:38;;;;;;;2.00;1.80;;;;;;;;;;4979678;28;20450;-71
2022/05/31 05:24:03;;;;;;;2.83;2.03;;;;;;;;;;4988521;28;20204;-70
2022/05/31 05:26:29;;;;;;;2.58;2.38;;;;;;;;;;4991017;28;20431;-67
2022/05/31 05:31:40;;;;;;;2.50;2.30;;;;;;;;;;4986497;28;20060;-69
2022/05/31 05:34:06;;;;;;;2.55;2.35;;;;;;;;;;4969627;28;20030;-73
2022/05/31 05:36:31;;;;;;;2.50;2.30;;;;;;;;;;4978443;28;20049;-70
2022/05/31 05:38:56;;;;;;;3.97;2.47;;;;;;;;;;4986162;28;20033;-69
2022/05/31 05:41:23;;;;;;;3.20;2.35;;;;;;;;;;4991301;28;20042;-73
2022/05/31 05:43:48;;;;;;;2.85;2.15;;;;;;;;;;4990111;28;20164;-76
2022/05/31 05:46:18;;;;;;;3.90;2.35;;;;;;;;;;4987965;28;20121;-70
2022/05/31 05:48:44;;;;;;;6.20;2.55;;;;;;;;;;4991962;28;20177;-70
2022/05/31 05:51:35;;;;;;;3.45;2.00;;;;;;;;;;4990358;28;20129;-77
2022/05/31 05:54:03;;;;;;;2.53;1.33;;;;;;;;;;4985457;28;20038;-72
2022/05/31 05:56:29;;;;;;;2.45;2.25;;;;;;;;;;4986502;28;20335;-70
2022/05/31 05:58:54;;;;;;;4.95;2.28;;;;;;;;;;4988950;28;20041;-76
2022/05/31 06:01:19;;;;;;;2.47;2.20;;;;;;;;;;4985470;28;20041;-71
2022/05/31 06:03:53;;;;;;;2.95;1.92;;;;;;;;;;4990443;28;20121;-72
2022/05/31 06:06:19;;;;;;;2.65;2.22;;;;;;;;;;4988883;28;20032;-73
2022/05/31 06:08:48;;;;;;;2.95;2.00;;;;;;;;;;4986274;28;20031;-69
2022/05/31 06:11:15;;;;;;;1.88;1.77;;;;;;;;;;4973964;28;20026;-68
2022/05/31 06:14:02;;;;;;;6.03;1.90;;;;;;;;;;4986324;28;20433;-69
2022/05/31 06:16:30;;;;;;;3.28;2.08;;;;;;;;;;4985155;28;20045;-70
2022/05/31 06:18:59;;;;;;;3.00;2.33;;;;;;;;;;4987636;28;20121;-73
2022/05/31 06:21:24;;;;;;;3.17;2.13;;;;;;;;;;4984663;28;20026;-70
2022/05/31 06:23:50;;;;;;;3.60;2.85;;;;;;;;;;4988879;28;21118;-69
2022/05/31 06:26:17;;;;;;;2.78;2.28;;;;;;;;;;4988875;28;20085;-70
2022/05/31 06:28:42;;;;;;;3.15;2.50;;;;;;;;;;4990444;28;20081;-71
2022/05/31 06:31:08;;;;;;;3.50;2.83;;;;;;;;;;4976901;28;20031;-68
2022/05/31 06:33:33;;;;;;;9.70;4.32;;;;;;;;;;4989477;28;20101;-69
2022/05/31 06:36:01;;;;;;;4.68;3.13;;;;;;;;;;4991205;28;20050;-70
2022/05/31 06:38:26;;;;;;;5.45;3.25;;;;;;;;;;4992040;28;20129;-72
2022/05/31 06:40:52;;;;;;;4.85;2.90;;;;;;;;;;4992477;28;20169;-72
2022/05/31 06:43:17;;;;;;;3.75;3.00;;;;;;;;;;4987378;28;20364;-70
2022/05/31 06:45:42;;;;;;;2.42;2.20;;;;;;;;;;4991178;28;20505;-69
2022/05/31 06:48:08;;;;;;;2.53;2.33;;;;;;;;;;4988796;28;20030;-69
2022/05/31 06:50:33;;;;;;;2.80;2.47;;;;;;;;;;4992284;28;20025;-70
2022/05/31 06:58:27;;;;;;;3.58;2.47;;;;;;;;;;4989311;28;20084;-70
2022/05/31 07:00:53;;;;;;;6.43;2.30;;;;;;;;;;4990010;28;20108;-69
2022/05/31 07:03:18;;;;;;;2.53;2.33;;;;;;;;;;4988254;28;20041;-69
2022/05/31 07:05:43;;;;;;;3.20;2.28;;;;;;;;;;4990451;28;20084;-68
2022/05/31 07:08:08;;;;;;;3.78;2.80;;;;;;;;;;4980223;28;20350;-70
2022/05/31 07:10:34;;;;;;;5.93;3.33;;;;;;;;;;4991180;28;20162;-70
2022/05/31 07:12:59;;;;;;;3.63;2.60;;;;;;;;;;4991959;28;20022;-70
2022/05/31 07:15:26;;;;;;;3.00;2.60;;;;;;;;;;4985987;28;20068;-71
2022/05/31 07:17:51;;;;;;;3.45;2.17;;;;;;;;;;4988113;28;20177;-70
2022/05/31 07:20:17;;;;;;;2.72;2.00;;;;;;;;;;4990714;28;20142;-71
2022/05/31 07:22:42;;;;;;;2.55;1.90;;;;;;;;;;4992203;28;20030;-69
2022/05/31 07:25:08;;;;;;;2.50;2.22;;;;;;;;;;4992849;28;20038;-68
2022/05/31 07:27:33;;;;;;;5.28;2.38;;;;;;;;;;4990584;28;20034;-68
2022/05/31 07:29:59;;;;;;;3.83;2.53;;;;;;;;;;4990741;28;20021;-69
2022/05/31 07:32:24;;;;;;;4.65;2.25;;;;;;;;;;4993439;28;20025;-73
2022/05/31 07:34:50;;;;;;;2.63;2.33;;;;;;;;;;4990333;28;20468;-70
2022/05/31 07:37:15;;;;;;;3.35;2.28;;;;;;;;;;4980333;28;20056;-74
2022/05/31 07:39:40;;;;;;;2.75;2.38;;;;;;;;;;4988373;28;20026;-69
2022/05/31 07:42:06;;;;;;;3.95;2.40;;;;;;;;;;4990973;28;20450;-69
2022/05/31 07:44:32;;;;;;;3.75;2.42;;;;;;;;;;4994593;28;20104;-67
2022/05/31 07:46:59;;;;;;;2.75;2.15;;;;;;;;;;4990860;28;20114;-71
2022/05/31 07:49:24;;;;;;;2.03;1.83;;;;;;;;;;4990444;28;20026;-69
2022/05/31 07:51:49;;;;;;;2.22;1.77;;;;;;;;;;4990873;28;20034;-72
2022/05/31 07:54:15;;;;;;;2.60;2.30;;;;;;;;;;4990744;28;20034;-73
2022/05/31 07:56:40;;;;;;;3.50;2.10;;;;;;;;;;4992690;28;20050;-68
2022/05/31 07:59:05;;;;;;;3.83;2.13;;;;;;;;;;4990275;28;20065;-72
2022/05/31 08:01:30;;;;;;;3.75;2.10;;;;;;;;;;4991413;28;20036;-69
2022/05/31 08:03:56;;;;;;;2.63;2.42;;;;;;;;;;4993733;28;20120;-68
2022/05/31 08:06:23;;;;;;;3.83;2.25;;;;;;;;;;4990901;28;20030;-67
2022/05/31 08:08:48;;;;;;;1.75;1.65;;;;;;;;;;4992455;28;20404;-67
2022/05/31 08:11:18;;;;;;;2.20;1.92;;;;;;;;;;4991193;28;20088;-69
2022/05/31 08:13:43;;;;;;;3.50;1.63;;;;;;;;;;4988865;28;20030;-69
2022/05/31 08:16:09;;;;;;;2.20;1.95;;;;;;;;;;4993347;28;20049;-72
2022/05/31 08:18:35;;;;;;;2.50;1.80;;;;;;;;;;4990647;28;20026;-72
2022/05/31 08:21:01;;;;;;;2.10;1.90;;;;;;;;;;4990185;28;20056;-72
2022/05/31 08:23:27;;;;;;;2.65;1.90;;;;;;;;;;4988339;28;20066;-69
2022/05/31 08:25:54;;;;;;;4.25;2.30;;;;;;;;;;4991146;28;20045;-70
2022/05/31 08:28:19;;;;;;;3.53;2.15;;;;;;;;;;4989614;28;20023;-70
2022/05/31 08:30:45;;;;;;;2.47;2.25;;;;;;;;;;4987527;28;20034;-70
2022/05/31 08:33:10;;;;;;;4.25;2.20;;;;;;;;;;4987747;28;20030;-68
2022/05/31 08:35:35;;;;;;;7.40;2.40;;;;;;;;;;4991112;28;20227;-70
2022/05/31 08:38:01;;;;;;;2.58;2.38;;;;;;;;;;4985735;28;20074;-70
2022/05/31 08:40:26;;;;;;;4.00;2.58;;;;;;;;;;4986023;28;20145;-70
2022/05/31 08:42:55;;;;;;;3.88;2.63;;;;;;;;;;4991941;28;20595;-69
2022/05/31 08:45:32;;;;;;;3.40;2.00;;;;;;;;;;4989369;28;20346;-68
2022/05/31 08:47:57;;;;;;;4.05;2.50;;;;;;;;;;4988123;28;20109;-68
2022/05/31 08:53:16;;;;;;;4.57;2.47;;;;;;;;;;4991201;28;20525;-70
2022/05/31 08:58:35;;;;;;;2.42;2.15;;;;;;;;;;4992167;28;20628;-69
2022/05/31 09:01:02;;;;;;;5.63;3.47;;;;;;;;;;4991823;28;20481;-73
2022/05/31 09:03:37;;;;;;;5.45;2.45;;;;;;;;;;4989186;28;20018;-72
2022/05/31 09:06:07;;;;;;;4.30;2.53;;;;;;;;;;4988757;28;20065;-73
2022/05/31 09:08:32;;;;;;;2.55;1.90;;;;;;;;;;4988100;28;20030;-68
2022/05/31 09:11:06;;;;;;;4.72;2.03;;;;;;;;;;4988986;28;20118;-73
2022/05/31 09:13:38;;;;;;;3.97;2.00;;;;;;;;;;4988812;28;20105;-68
2022/05/31 09:16:09;;;;;;;2.28;1.75;;;;;;;;;;4989485;28;20056;-70
2022/05/31 09:18:38;;;;;;;4.40;1.60;;;;;;;;;;4989976;28;20034;-67
2022/05/31 09:21:04;;;;;;;3.08;1.60;;;;;;;;;;4988829;28;20041;-68
2022/05/31 09:23:31;;;;;;;2.72;1.75;;;;;;;;;;4988204;28;20120;-67
2022/05/31 09:26:03;;;;;;;3.65;2.13;;;;;;;;;;4987814;28;20026;-69
2022/05/31 09:28:32;;;;;;;2.35;2.00;;;;;;;;;;4988448;28;20022;-68
2022/05/31 09:31:04;;;;;;;4.43;2.25;;;;;;;;;;4988051;28;20025;-70
2022/05/31 09:33:33;;;;;;;2.95;1.52;;;;;;;;;;4989879;28;20120;-71
2022/05/31 09:36:09;;;;;;;2.67;1.85;;;;;;;;;;4985614;28;20393;-68
2022/05/31 09:38:52;;;;;;;2.10;1.60;;;;;;;;;;4987360;28;20433;-69
2022/05/31 09:41:36;;;;;;;4.22;1.77;;;;;;;;;;4986417;28;20029;-69
2022/05/31 09:44:04;;;;;;;6.03;3.75;;;;;;;;;;4985069;28;20031;-69
2022/05/31 09:46:36;;;;;;;3.67;1.83;;;;;;;;;;4985947;28;20104;-70
2022/05/31 09:49:11;;;;;;;2.50;1.90;;;;;;;;;;4987664;28;20513;-69
2022/05/31 09:51:41;;;;;;;2.60;1.70;;;;;;;;;;4986609;28;20101;-70
2022/05/31 09:57:05;;;;;;;4.72;1.90;;;;;;;;;;4986321;28;20068;-72
2022/05/31 09:59:32;;;;;;;3.55;1.80;;;;;;;;;;4993172;28;20022;-68
2022/05/31 10:02:21;;;;;;;2.80;1.80;;;;;;;;;;4994587;28;20034;-69
2022/05/31 10:04:48;;;;;;;3.08;1.85;;;;;;;;;;4989591;28;20042;-70
2022/05/31 10:07:13;;;;;;;2.97;2.20;;;;;;;;;;4994827;28;20026;-69
2022/05/31 10:09:43;;;;;;;2.40;1.75;;;;;;;;;;4994027;28;20030;-68
2022/05/31 10:12:14;;;;;;;4.53;2.10;;;;;;;;;;4994427;28;20041;-71
2022/05/31 10:14:44;;;;;;;5.18;2.00;;;;;;;;;;4993813;28;20118;-68
2022/05/31 10:17:30;;;;;;;4.10;1.90;;;;;;;;;;4994820;28;20035;-70
2022/05/31 10:20:25;;;;;;;3.30;2.20;;;;;;;;;;4991228;28;20170;-71
2022/05/31 10:23:01;;;;;;;7.25;2.33;;;;;;;;;;4984328;28;20046;-69
2022/05/31 10:25:34;;;;;;;3.20;1.75;;;;;;;;;;4981454;28;20386;-69
2022/05/31 10:28:12;;;;;;;4.68;1.90;;;;;;;;;;4990797;28;20497;-71
2022/05/31 10:30:38;;;;;;;3.58;1.85;;;;;;;;;;4994376;28;20046;-69
2022/05/31 10:33:12;;;;;;;2.85;2.10;;;;;;;;;;4993109;28;20030;-68
2022/05/31 10:35:46;;;;;;;4.35;2.40;;;;;;;;;;4992372;28;20113;-72
2022/05/31 10:38:17;;;;;;;3.90;2.70;;;;;;;;;;4992578;28;20038;-71
2022/05/31 10:40:47;;;;;;;2.97;1.90;;;;;;;;;;4991996;28;20026;-67
2022/05/31 10:43:12;;;;;;;8.88;3.22;;;;;;;;;;4991618;28;20034;-69
2022/05/31 10:45:38;;;;;;;4.33;2.43;;;;;;;;;;4991874;28;20045;-71
2022/05/31 10:48:03;;;;;;;6.78;2.47;;;;;;;;;;4997350;28;20345;-68
2022/05/31 10:50:49;;;;;;;2.92;2.28;;;;;;;;;;4998549;28;20030;-68
2022/05/31 10:53:22;;;;;;;2.65;2.00;;;;;;;;;;4995639;28;20085;-72
2022/05/31 10:55:58;;;;;;;5.78;2.28;;;;;;;;;;4998714;28;20054;-69
2022/05/31 10:58:26;;;;;;;3.83;1.85;;;;;;;;;;4998124;28;20112;-70
2022/05/31 11:01:04;;;;;;;2.03;1.73;;;;;;;;;;4997030;28;20031;-68
2022/05/31 11:03:43;;;;;;;4.20;2.30;;;;;;;;;;4996085;28;20335;-73
2022/05/31 11:06:14;;;;;;;4.32;2.20;;;;;;;;;;4994253;28;20121;-68
2022/05/31 11:12:01;;;;;;;5.57;2.05;;;;;;;;;;4990028;28;20092;-68
2022/05/31 11:14:29;;;;;;;3.63;1.85;;;;;;;;;;4991224;28;20033;-68
2022/05/31 11:17:02;;;;;;;2.17;1.80;;;;;;;;;;4988640;28;20787;-69
2022/05/31 11:19:33;;;;;;;3.78;2.17;;;;;;;;;;4989857;28;20105;-69
2022/05/31 11:22:12;;;;;;;3.88;2.03;;;;;;;;;;4989830;28;20022;-68
2022/05/31 11:24:41;;;;;;;2.90;2.30;;;;;;;;;;4990746;28;20408;-69
2022/05/31 11:27:23;;;;;;;2.50;1.58;;;;;;;;;;4991531;28;20370;-72
2022/05/31 11:29:48;;;;;;;8.75;2.15;;;;;;;;;;4990341;28;20045;-68
2022/05/31 11:32:32;;;;;;;2.33;1.90;;;;;;;;;;4991017;28;20437;-69
2022/05/31 11:35:06;;;;;;;2.67;1.70;;;;;;;;;;4993754;28;20306;-73
2022/05/31 11:37:37;;;;;;;4.80;2.20;;;;;;;;;;4988166;28;20314;-69
2022/05/31 11:40:04;;;;;;;4.85;2.10;;;;;;;;;;4990885;28;20042;-68
2022/05/31 11:42:47;;;;;;;6.05;2.05;;;;;;;;;;4990558;28;20030;-69
2022/05/31 11:45:19;;;;;;;3.35;1.90;;;;;;;;;;4988141;28;20353;-68
2022/05/31 11:47:44;;;;;;;2.22;1.80;;;;;;;;;;4991298;28;20022;-70
2022/05/31 11:50:29;;;;;;;2.45;1.90;;;;;;;;;;4988641;28;20350;-69
2022/05/31 11:53:09;;;;;;;3.92;1.83;;;;;;;;;;4989251;28;20038;-68
2022/05/31 11:55:34;;;;;;;5.05;2.08;;;;;;;;;;4987400;28;20047;-70
2022/05/31 11:58:18;;;;;;;5.27;1.80;;;;;;;;;;4987554;28;20049;-68
2022/05/31 12:01:01;;;;;;;3.65;2.00;;;;;;;;;;4991336;28;20611;-68
2022/05/31 12:03:31;;;;;;;3.88;1.58;;;;;;;;;;4993356;28;20978;-68
2022/05/31 12:06:08;;;;;;;1.77;1.15;;;;;;;;;;4990063;28;20104;-70
2022/05/31 12:08:37;;;;;;;2.45;1.42;;;;;;;;;;4989467;28;20029;-71
2022/05/31 12:11:12;;;;;;;2.78;1.60;;;;;;;;;;4987739;28;20026;-69
2022/05/31 12:13:41;;;;;;;3.50;2.28;;;;;;;;;;4993948;28;20061;-69
2022/05/31 12:16:06;;;;;;;3.50;2.60;;;;;;;;;;4989645;28;20049;-73
2022/05/31 12:18:37;;;;;;;5.38;4.40;;;;;;;;;;4991428;28;20038;-69
2022/05/31 12:21:13;;;;;;;7.30;5.20;;;;;;;;;;4988544;28;20510;-70
2022/05/31 12:23:50;;;;;;;7.53;6.13;;;;;;;;;;4988313;28;20030;-72
2022/05/31 12:26:24;;;;;;;9.75;6.95;;;;;;;;;;4986779;28;20038;-71
2022/05/31 12:29:06;;;;;;;14.15;8.50;;;;;;;;;;4985179;28;20034;-68
2022/05/31 12:31:33;;;;;;;13.07;8.70;;;;;;;;;;4986907;28;20038;-69
2022/05/31 12:34:34;;;;;;;12.88;8.88;;;;;;;;;;4992647;28;20342;-69
2022/05/31 12:37:01;;;;;;;14.63;9.57;;;;;;;;;;4989500;28;20018;-69
2022/05/31 12:39:30;;;;;;;14.98;10.05;;;;;;;;;;4987676;28;20018;-73
2022/05/31 12:41:56;;;;;;;16.15;10.68;;;;;;;;;;4987401;28;20425;-70
2022/05/31 12:44:29;;;;;;;17.45;11.30;;;;;;;;;;4986204;28;20030;-70
2022/05/31 12:47:08;;;;;;;18.67;13.20;;;;;;;;;;4990183;28;20021;-68
2022/05/31 12:49:33;;;;;;;;;;;;;;;;;;4988752;28;20029;-70
2022/05/31 12:54:50;;;;;;;20.67;13.73;;;;;;;;;;4989515;28;20038;-71
2022/05/31 12:57:24;;;;;;;25.42;13.13;;;;;;;;;;4988828;28;20054;-69
2022/05/31 12:59:51;;;;;;;22.45;14.00;;;;;;;;;;4990165;28;20026;-69
2022/05/31 13:02:21;;;;;;;20.38;14.00;;;;;;;;;;4991052;28;20060;-70
2022/05/31 13:04:55;;;;;;;23.52;14.88;;;;;;;;;;4988263;28;20116;-71
2022/05/31 13:07:38;;;;;;;22.73;13.75;;;;;;;;;;4987040;28;20105;-69
2022/05/31 13:10:22;;;;;;;23.23;15.73;;;;;;;;;;4988788;28;20418;-69
2022/05/31 13:21:07;;;;;;;27.13;17.27;;;;;;;;;;4990077;28;20101;-69
2022/05/31 13:23:47;;;;;;;27.42;16.45;;;;;;;;;;4986314;28;20027;-67
2022/05/31 13:26:20;;;;;;;24.55;16.05;;;;;;;;;;4984010;28;20509;-73
2022/05/31 13:28:51;;;;;;;26.70;14.98;;;;;;;;;;4973328;28;20044;-69
2022/05/31 13:31:19;;;;;;;20.40;14.20;;;;;;;;;;4985336;28;20121;-69
2022/05/31 13:33:44;;;;;;;21.55;13.05;;;;;;;;;;4977084;28;20161;-73
2022/05/31 13:36:16;;;;;;;18.95;12.20;;;;;;;;;;4982110;28;20465;-68
2022/05/31 13:38:43;;;;;;;18.23;12.48;;;;;;;;;;4989954;28;20037;-71
2022/05/31 13:41:12;;;;;;;20.15;13.30;;;;;;;;;;4987039;28;20032;-70
2022/05/31 13:43:47;;;;;;;17.45;11.13;;;;;;;;;;4991091;28;20037;-70
2022/05/31 13:46:31;;;;;;;18.92;11.60;;;;;;;;;;4976954;28;20453;-71
2022/05/31 13:49:04;;;;;;;16.42;11.65;;;;;;;;;;4988691;28;20046;-69
2022/05/31 13:51:31;;;;;;;16.42;10.50;;;;;;;;;;4981543;28;20054;-68
2022/05/31 13:54:16;;;;;;;13.85;9.77;;;;;;;;;;4980677;28;20353;-70
2022/05/31 13:56:46;;;;;;;14.95;9.57;;;;;;;;;;4988390;28;20104;-69
2022/05/31 13:59:11;;;;;;;13.77;10.30;;;;;;;;;;4986978;28;20512;-71
2022/05/31 14:01:42;;;;;;;14.70;10.07;;;;;;;;;;4975314;28;20113;-70
2022/05/31 14:04:09;;;;;;;15.68;10.00;;;;;;;;;;4975735;28;20144;-70
2022/05/31 14:06:35;;;;;;;18.90;13.02;;;;;;;;;;4980026;28;20042;-74
2022/05/31 14:09:01;;;;;;;26.23;17.52;;;;;;;;;;4965507;28;20065;-73
2022/05/31 14:11:32;;;;;;;16.80;11.75;;;;;;;;;;4990047;28;20109;-70
2022/05/31 14:13:59;;;;;;;15.32;10.65;;;;;;;;;;4982698;28;20057;-70
2022/05/31 14:16:30;;;;;;;15.48;10.20;;;;;;;;;;4979996;28;20080;-78
2022/05/31 14:18:57;;;;;;;14.23;8.70;;;;;;;;;;4975492;28;20056;-68
2022/05/31 14:21:23;;;;;;;12.07;8.38;;;;;;;;;;4972873;28;20369;-70
2022/05/31 14:23:49;;;;;;;13.75;8.93;;;;;;;;;;4974009;28;20061;-74
2022/05/31 14:26:15;;;;;;;14.20;9.88;;;;;;;;;;4979933;28;20092;-70
2022/05/31 14:28:59;;;;;;;16.02;11.23;;;;;;;;;;4979192;28;20357;-68
2022/05/31 14:31:25;;;;;;;16.13;10.25;;;;;;;;;;4976294;28;20030;-69
2022/05/31 14:33:50;;;;;;;18.67;11.23;;;;;;;;;;4970664;28;20031;-72
2022/05/31 14:36:28;;;;;;;17.48;9.63;;;;;;;;;;4981229;28;20025;-70
2022/05/31 14:38:54;;;;;;;14.70;8.20;;;;;;;;;;4979851;28;20066;-73
2022/05/31 14:41:21;;;;;;;14.80;10.35;;;;;;;;;;4968257;28;20855;-73
2022/05/31 14:43:50;;;;;;;15.35;9.35;;;;;;;;;;4968472;28;20021;-72
2022/05/31 14:46:32;;;;;;;14.10;9.25;;;;;;;;;;4971627;28;20030;-70
2022/05/31 14:49:33;;;;;;;15.38;10.10;;;;;;;;;;4981700;28;20455;-70
2022/05/31 14:52:15;;;;;;;11.32;8.90;;;;;;;;;;4905525;29;20190;-70
2022/05/31 14:54:41;;;;;;;11.52;8.75;;;;;;;;;;4976559;28;20045;-70
2022/05/31 14:58:36;;;;;;;12.88;8.90;;;;;;;;;;4962195;28;20061;-69
2022/05/31 15:00:13;;;;;;;16.27;10.90;;;;;;;;;;4981194;28;20034;-69
2022/05/31 15:02:38;;;;;;;12.85;9.35;;;;;;;;;;4978776;28;20731;-71
2022/05/31 15:05:04;;;;;;;10.20;7.85;;;;;;;;;;4984070;28;20413;-69
2022/05/31 15:07:31;;;;;;;19.85;11.70;;;;;;;;;;4993263;28;20108;-70
2022/05/31 15:10:09;;;;;;;18.50;10.88;;;;;;;;;;4978693;28;20026;-73
2022/05/31 15:20:50;;;;;;;13.85;8.80;;;;;;;;;;4974672;28;20113;-68
2022/05/31 15:23:19;;;;;;;14.20;9.73;;;;;;;;;;4974968;28;20026;-69
2022/05/31 15:25:50;;;;;;;12.32;8.77;;;;;;;;;;4973384;28;20021;-67
2022/05/31 15:28:15;;;;;;;16.23;10.55;;;;;;;;;;4990224;28;20045;-67
2022/05/31 15:30:41;;;;;;;13.82;8.77;;;;;;;;;;4990986;28;20362;-71
2022/05/31 15:33:06;;;;;;;11.55;9.30;;;;;;;;;;4984795;28;20022;-69